Time;durP1;ratioP1;P1;durP2;ratioP2;P2;SDS_P1;SDS_P2;PMS_P1;PMS_P2;Temp;Humidity;BMP_temperature;BMP_pressure;BME280_temperature;BME280_humidity;BME280_pressure;Samples;Min_cycle;Max_cycle;Signal;HPM_P1;HPM_P2
2023/10/17 00:01:44;;;;;;;5.38;1.70;;;12.90;95.80;;;;;;5032796;28;20116;-83
2023/10/17 00:04:32;;;;;;;5.60;1.70;;;12.90;95.90;;;;;;5032939;28;20041;-85
2023/10/17 00:07:02;;;;;;;5.60;1.17;;;12.90;96.00;;;;;;5032392;28;20033;-85
2023/10/17 00:09:36;;;;;;;3.33;1.10;;;12.90;95.90;;;;;;5033032;28;20037;-84
2023/10/17 00:14:58;;;;;;;3.65;0.77;;;12.80;95.40;;;;;;5032747;28;20033;-84
2023/10/17 00:17:23;;;;;;;3.50;0.70;;;12.80;95.30;;;;;;5017050;28;20030;-85
2023/10/17 00:19:49;;;;;;;3.30;0.85;;;12.70;95.20;;;;;;5032118;28;20120;-85
2023/10/17 00:22:18;;;;;;;3.38;0.82;;;12.70;95.30;;;;;;5032428;28;20049;-85
2023/10/17 00:24:47;;;;;;;4.50;0.70;;;12.80;95.30;;;;;;5032774;28;20057;-83
2023/10/17 00:27:13;;;;;;;7.05;1.23;;;12.70;95.40;;;;;;5034558;28;20049;-85
2023/10/17 00:29:39;;;;;;;2.58;0.60;;;12.70;95.40;;;;;;5036089;28;20080;-85
2023/10/17 00:32:08;;;;;;;3.17;0.63;;;12.60;95.40;;;;;;5036254;28;20053;-84
2023/10/17 00:34:34;;;;;;;2.10;0.60;;;12.60;95.50;;;;;;5036189;28;20112;-85
2023/10/17 00:37:06;;;;;;;4.53;0.60;;;12.60;95.50;;;;;;5036038;28;20393;-85
2023/10/17 00:39:32;;;;;;;3.35;0.52;;;12.70;95.50;;;;;;5036235;28;20021;-85
2023/10/17 00:44:38;;;;;;;5.95;0.80;;;12.50;95.20;;;;;;5036094;28;20474;-85
2023/10/17 00:47:09;;;;;;;3.88;0.70;;;12.50;95.30;;;;;;5035672;28;20478;-84
2023/10/17 00:49:42;;;;;;;5.47;0.70;;;12.50;95.30;;;;;;5018850;28;20039;-83
2023/10/17 00:52:24;;;;;;;5.93;0.63;;;12.50;95.20;;;;;;5035231;28;20128;-85
2023/10/17 00:54:53;;;;;;;2.75;0.38;;;12.40;95.30;;;;;;5041834;28;20021;-84
2023/10/17 00:57:22;;;;;;;1.52;0.40;;;12.40;95.30;;;;;;5035781;28;20026;-85
2023/10/17 00:59:52;;;;;;;2.67;0.60;;;12.40;95.60;;;;;;5035394;28;20037;-85
2023/10/17 01:02:29;;;;;;;2.38;0.40;;;12.40;95.30;;;;;;5035440;28;20030;-84
2023/10/17 01:04:58;;;;;;;2.40;0.80;;;12.50;95.40;;;;;;5035748;28;20034;-85
2023/10/17 01:07:34;;;;;;;3.25;0.77;;;12.50;95.30;;;;;;5035187;28;20116;-81
2023/10/17 01:10:24;;;;;;;4.97;0.77;;;12.40;95.40;;;;;;5035901;28;20025;-85
2023/10/17 01:13:02;;;;;;;3.33;0.70;;;12.40;95.30;;;;;;5034613;28;20049;-85
2023/10/17 01:15:28;;;;;;;5.53;0.70;;;12.30;95.30;;;;;;5035055;28;20061;-83
2023/10/17 01:18:06;;;;;;;4.82;0.60;;;12.30;95.10;;;;;;5017653;28;20061;-85
2023/10/17 01:20:34;;;;;;;1.63;0.57;;;12.20;95.20;;;;;;5035063;28;20036;-84
2023/10/17 01:23:00;;;;;;;4.55;0.70;;;12.20;95.30;;;;;;5035040;28;20033;-84
2023/10/17 01:25:29;;;;;;;4.53;0.50;;;12.20;95.30;;;;;;5017233;28;20500;-84
2023/10/17 01:27:57;;;;;;;3.22;0.60;;;12.20;95.50;;;;;;5035050;28;20037;-84
2023/10/17 01:30:23;;;;;;;4.20;0.43;;;12.20;95.60;;;;;;5035284;28;20026;-85
2023/10/17 01:32:51;;;;;;;2.88;0.47;;;12.20;95.80;;;;;;5035263;28;20091;-83
2023/10/17 01:35:20;;;;;;;3.53;0.60;;;12.20;95.80;;;;;;5035378;28;20025;-86
2023/10/17 01:37:47;;;;;;;2.25;0.40;;;12.10;95.40;;;;;;5017326;28;20071;-84
2023/10/17 01:40:46;;;;;;;1.83;0.50;;;12.10;95.50;;;;;;5034946;28;20033;-84
2023/10/17 01:43:04;;;;;;;3.75;0.43;;;12.00;95.50;;;;;;5030089;28;20496;-83
2023/10/17 01:45:37;;;;;;;5.70;0.63;;;12.00;95.50;;;;;;5017130;28;20076;-84
2023/10/17 01:48:03;;;;;;;2.35;0.60;;;12.00;95.40;;;;;;5017222;28;20501;-83
2023/10/17 01:50:28;;;;;;;2.55;0.60;;;11.90;95.50;;;;;;5016775;28;20064;-83
2023/10/17 01:52:54;;;;;;;2.78;0.70;;;11.80;95.70;;;;;;5034515;28;20034;-85
2023/10/17 01:55:25;;;;;;;4.85;0.70;;;11.80;95.80;;;;;;5017163;28;20489;-84
2023/10/17 01:57:54;;;;;;;3.30;0.88;;;11.80;95.60;;;;;;5034399;28;20044;-83
2023/10/17 02:00:38;;;;;;;3.95;0.63;;;11.80;95.50;;;;;;5034561;28;20041;-84
2023/10/17 02:03:05;;;;;;;5.07;0.75;;;11.90;95.40;;;;;;5017071;28;20034;-85
2023/10/17 02:05:32;;;;;;;3.92;0.73;;;11.90;95.40;;;;;;5034467;28;20036;-83
2023/10/17 02:07:59;;;;;;;4.53;0.70;;;11.90;95.50;;;;;;5016703;28;20045;-84
2023/10/17 02:10:25;;;;;;;3.80;1.17;;;11.90;95.60;;;;;;5034581;28;20531;-84
2023/10/17 02:12:53;;;;;;;3.15;0.85;;;11.70;95.80;;;;;;5016662;28;20033;-85
2023/10/17 02:15:19;;;;;;;2.47;0.85;;;11.70;96.10;;;;;;5033763;28;20442;-85
2023/10/17 02:17:48;;;;;;;4.78;1.30;;;11.70;96.10;;;;;;5016497;28;20116;-85
2023/10/17 02:20:30;;;;;;;6.18;1.10;;;11.70;96.10;;;;;;5016274;28;20125;-84
2023/10/17 02:23:08;;;;;;;6.88;1.70;;;11.70;96.20;;;;;;5016454;28;20025;-86
2023/10/17 02:25:35;;;;;;;3.72;1.38;;;11.70;96.00;;;;;;5033979;28;20091;-86
2023/10/17 02:28:01;;;;;;;8.70;1.38;;;11.70;96.00;;;;;;5034064;28;20036;-85
2023/10/17 02:30:28;;;;;;;3.38;0.98;;;11.50;96.30;;;;;;5016372;28;20551;-85
2023/10/17 02:32:53;;;;;;;2.63;0.88;;;11.50;96.50;;;;;;5016146;28;20029;-85
2023/10/17 02:35:39;;;;;;;4.90;0.93;;;11.50;96.30;;;;;;5033850;28;20029;-85
2023/10/17 02:38:05;;;;;;;4.95;1.00;;;11.50;96.40;;;;;;5033801;28;20083;-85
2023/10/17 02:40:34;;;;;;;3.53;0.95;;;11.40;96.30;;;;;;5016439;28;20037;-85
2023/10/17 02:43:03;;;;;;;4.47;1.20;;;11.50;96.40;;;;;;5033554;28;20109;-86
2023/10/17 02:45:29;;;;;;;5.40;1.27;;;11.40;96.40;;;;;;5033538;28;20024;-84
2023/10/17 02:48:06;;;;;;;3.00;0.77;;;11.30;96.40;;;;;;5033679;28;20033;-85
2023/10/17 02:52:59;;;;;;;4.15;1.00;;;11.30;96.60;;;;;;5033833;28;20037;-86
2023/10/17 02:55:25;;;;;;;6.05;1.35;;;11.30;96.50;;;;;;5033447;28;20033;-86
2023/10/17 02:57:52;;;;;;;4.40;1.20;;;11.20;96.60;;;;;;5015960;28;20517;-85
2023/10/17 03:00:22;;;;;;;4.68;1.23;;;11.10;96.80;;;;;;5033214;28;20025;-86
2023/10/17 03:02:55;;;;;;;3.67;1.40;;;11.00;97.10;;;;;;5010488;28;20033;-86
2023/10/17 03:05:22;;;;;;;3.78;1.08;;;11.00;97.40;;;;;;5033469;28;20520;-85
2023/10/17 03:07:51;;;;;;;4.85;1.48;;;11.00;97.10;;;;;;5033335;28;20051;-85
2023/10/17 03:10:39;;;;;;;6.80;1.30;;;10.90;97.10;;;;;;5033419;28;20029;-85
2023/10/17 03:13:23;;;;;;;5.60;1.27;;;10.80;97.40;;;;;;5033537;28;20083;-83
2023/10/17 03:16:01;;;;;;;7.05;1.35;;;10.90;97.40;;;;;;5017905;28;20018;-84
2023/10/17 03:18:27;;;;;;;3.53;1.63;;;10.90;97.40;;;;;;5017089;28;20037;-83
2023/10/17 03:20:53;;;;;;;4.88;1.80;;;10.80;97.40;;;;;;5032384;28;20025;-85
2023/10/17 03:23:20;;;;;;;5.55;1.70;;;10.70;97.50;;;;;;5016022;28;20022;-85
2023/10/17 03:25:49;;;;;;;3.17;1.50;;;10.60;97.80;;;;;;5033356;28;20184;-86
2023/10/17 03:28:17;;;;;;;3.22;1.60;;;10.70;97.90;;;;;;5033664;28;20036;-86
2023/10/17 03:30:43;;;;;;;5.15;1.80;;;10.80;98.00;;;;;;5033567;28;20038;-85
2023/10/17 03:33:14;;;;;;;4.55;1.60;;;10.90;97.60;;;;;;5010864;28;20033;-84
2023/10/17 03:38:32;;;;;;;3.65;1.75;;;10.90;97.50;;;;;;4986491;28;20046;-85
2023/10/17 03:41:04;;;;;;;4.57;1.83;;;10.90;97.50;;;;;;5015638;28;20458;-85
2023/10/17 03:43:37;;;;;;;5.55;1.80;;;10.90;97.40;;;;;;5033068;28;20030;-84
2023/10/17 03:46:06;;;;;;;3.55;1.85;;;10.90;97.50;;;;;;5033033;28;20444;-84
2023/10/17 03:48:36;;;;;;;3.92;2.40;;;10.80;97.50;;;;;;5033079;28;20048;-84
2023/10/17 03:53:32;;;;;;;5.38;2.55;;;10.80;97.60;;;;;;5033021;28;20024;-84
2023/10/17 03:56:02;;;;;;;5.00;2.17;;;10.70;97.70;;;;;;5033061;28;20029;-83
2023/10/17 03:58:43;;;;;;;3.08;2.00;;;10.60;98.10;;;;;;5032643;28;20084;-84
2023/10/17 04:01:10;;;;;;;6.95;2.58;;;10.50;98.20;;;;;;5034974;28;20080;-84
2023/10/17 04:03:36;;;;;;;5.30;1.92;;;10.50;98.40;;;;;;5019154;28;20025;-82
2023/10/17 04:08:37;;;;;;;7.38;2.13;;;10.50;98.40;;;;;;5036887;28;20033;-83
2023/10/17 04:11:19;;;;;;;4.65;2.00;;;10.30;98.60;;;;;;5036609;28;20025;-84
2023/10/17 04:13:56;;;;;;;5.55;1.70;;;10.40;98.60;;;;;;5036635;28;20034;-85
2023/10/17 04:16:28;;;;;;;7.88;2.92;;;10.40;98.60;;;;;;5036768;28;20033;-84
2023/10/17 04:18:57;;;;;;;4.55;2.33;;;10.50;98.50;;;;;;5036220;28;20039;-85
2023/10/17 04:21:36;;;;;;;6.20;2.42;;;10.50;98.60;;;;;;5035896;28;20033;-86
2023/10/17 04:24:05;;;;;;;7.25;2.25;;;10.50;98.60;;;;;;5036402;28;20420;-86
2023/10/17 04:26:43;;;;;;;5.60;2.22;;;10.60;98.50;;;;;;5036340;28;20058;-84
2023/10/17 04:29:18;;;;;;;6.75;2.30;;;10.60;98.60;;;;;;5036407;28;20038;-84
2023/10/17 04:31:47;;;;;;;6.30;1.80;;;10.70;98.70;;;;;;5036451;28;20053;-84
2023/10/17 04:34:21;;;;;;;4.13;2.20;;;10.70;98.40;;;;;;5018451;28;20030;-83
2023/10/17 04:36:51;;;;;;;4.78;2.10;;;10.80;98.40;;;;;;5036029;28;20025;-85
2023/10/17 04:44:21;;;;;;;2.83;1.80;;;10.80;98.20;;;;;;5036125;28;20479;-85
2023/10/17 04:46:51;;;;;;;8.95;2.63;;;10.70;98.40;;;;;;5036062;28;20034;-85
2023/10/17 04:49:21;;;;;;;3.20;2.25;;;10.60;98.50;;;;;;5036046;28;20025;-85
2023/10/17 04:51:52;;;;;;;4.45;1.73;;;10.60;98.60;;;;;;5035551;28;20095;-85
2023/10/17 04:54:38;;;;;;;3.60;1.90;;;10.70;98.60;;;;;;5035965;28;20049;-87
2023/10/17 04:57:06;;;;;;;4.40;2.15;;;10.80;98.60;;;;;;5036511;28;20079;-85
2023/10/17 06:18:32;;;;;;;14.18;7.32;;;11.00;99.30;;;;;;5034003;28;20418;-82
2023/10/17 06:34:19;;;;;;;13.18;7.35;;;10.50;99.90;;;;;;5034237;28;20116;-83
2023/10/17 06:36:50;;;;;;;15.02;7.32;;;10.50;99.90;;;;;;5016910;28;20057;-82
2023/10/17 06:39:18;;;;;;;8.43;6.28;;;10.50;99.90;;;;;;5033955;28;20083;-83
2023/10/17 06:41:45;;;;;;;8.98;5.97;;;10.40;99.90;;;;;;5033610;28;20014;-82
2023/10/17 06:44:15;;;;;;;12.38;6.72;;;10.50;99.90;;;;;;5016086;28;20124;-83
2023/10/17 06:47:08;;;;;;;10.40;5.90;;;10.60;99.90;;;;;;5033742;28;20025;-81
2023/10/17 06:52:19;;;;;;;8.00;4.80;;;10.70;99.90;;;;;;5033239;28;20057;-82
2023/10/17 06:54:52;;;;;;;8.57;5.95;;;10.60;99.90;;;;;;5033605;28;20041;-82
2023/10/17 06:57:19;;;;;;;8.20;5.63;;;10.60;99.90;;;;;;5033762;28;20021;-83
2023/10/17 07:00:16;;;;;;;10.52;5.20;;;10.70;99.90;;;;;;5032957;28;20040;-82
2023/10/17 07:02:48;;;;;;;8.52;5.22;;;10.70;99.90;;;;;;5017900;28;20590;-81
2023/10/17 07:05:14;;;;;;;7.60;5.35;;;10.70;99.90;;;;;;5033804;28;20118;-82
2023/10/17 07:07:41;;;;;;;10.88;5.60;;;10.80;99.90;;;;;;5015978;28;20021;-82
2023/10/17 07:13:31;;;;;;;5.43;4.18;;;10.80;99.90;;;;;;5033674;28;20021;-83
2023/10/17 07:21:57;;;;;;;7.88;4.85;;;11.00;99.70;;;;;;5032807;28;20121;-82
2023/10/17 07:24:23;;;;;;;6.68;4.25;;;11.10;99.70;;;;;;5015478;28;20117;-81
2023/10/17 07:26:52;;;;;;;9.02;5.13;;;11.20;99.30;;;;;;5033101;28;20037;-81
2023/10/17 07:29:22;;;;;;;7.78;5.38;;;11.30;99.20;;;;;;5033150;28;20527;-81
2023/10/17 07:31:52;;;;;;;7.65;5.00;;;11.30;99.10;;;;;;5033516;28;20026;-82
2023/10/17 07:34:21;;;;;;;10.55;5.72;;;11.30;99.00;;;;;;5033041;28;20120;-82
2023/10/17 07:39:38;;;;;;;6.70;4.60;;;11.30;98.90;;;;;;5036978;28;20044;-82
2023/10/17 07:42:04;;;;;;;9.55;5.68;;;11.40;99.20;;;;;;5003583;28;20032;-82
2023/10/17 07:44:34;;;;;;;8.55;5.95;;;11.50;98.90;;;;;;5036629;28;20037;-82
2023/10/17 07:49:29;;;;;;;11.20;6.72;;;11.50;98.80;;;;;;5037223;28;20040;-83
2023/10/17 07:51:58;;;;;;;9.77;6.60;;;11.40;98.80;;;;;;5036530;28;20374;-83
2023/10/17 07:54:28;;;;;;;10.88;6.35;;;11.30;98.90;;;;;;5037213;28;20381;-83
2023/10/17 07:56:55;;;;;;;7.68;5.18;;;11.30;98.90;;;;;;5036932;28;20390;-82
2023/10/17 07:59:30;;;;;;;10.38;6.75;;;11.40;99.00;;;;;;5036575;28;20037;-83
2023/10/17 08:02:00;;;;;;;8.70;5.88;;;11.40;99.10;;;;;;5036934;28;20155;-82
2023/10/17 08:04:36;;;;;;;8.75;6.47;;;11.40;99.10;;;;;;5036616;28;20509;-83
2023/10/17 08:07:03;;;;;;;8.50;5.32;;;11.50;99.10;;;;;;5036904;28;20038;-83
2023/10/17 08:09:36;;;;;;;11.95;7.30;;;11.40;98.90;;;;;;5036934;28;20397;-82
2023/10/17 08:12:05;;;;;;;11.65;7.15;;;11.30;99.20;;;;;;5036819;28;20501;-83
2023/10/17 08:14:44;;;;;;;12.40;7.05;;;11.30;99.10;;;;;;5036488;28;20063;-83
2023/10/17 08:17:11;;;;;;;11.15;6.72;;;11.10;99.00;;;;;;5036681;28;20025;-82
2023/10/17 08:22:25;;;;;;;12.80;7.88;;;11.20;99.20;;;;;;5035824;28;20604;-81
2023/10/17 08:24:51;;;;;;;11.77;7.53;;;11.20;99.10;;;;;;5036440;28;20029;-82
2023/10/17 08:30:05;;;;;;;16.42;8.68;;;11.10;99.50;;;;;;5036315;28;20425;-79
2023/10/17 08:32:39;;;;;;;12.93;8.32;;;11.10;99.70;;;;;;5036653;28;20048;-82
2023/10/17 08:35:17;;;;;;;15.45;9.18;;;10.90;99.90;;;;;;5010148;28;20021;-83
2023/10/17 08:37:43;;;;;;;15.68;9.25;;;11.00;99.90;;;;;;5041799;28;20037;-81
2023/10/17 08:43:14;;;;;;;17.08;8.52;;;11.10;99.90;;;;;;5018252;28;20041;-81
2023/10/17 08:45:41;;;;;;;12.18;8.70;;;11.30;99.90;;;;;;5036387;28;20466;-81
2023/10/17 08:48:09;;;;;;;14.93;8.93;;;11.40;99.80;;;;;;5016971;28;20037;-81
2023/10/17 08:50:38;;;;;;;14.82;9.98;;;11.40;99.50;;;;;;5035669;28;20034;-82
2023/10/17 08:53:18;;;;;;;14.02;8.23;;;11.50;99.50;;;;;;5035884;28;20026;-82
2023/10/17 08:55:44;;;;;;;11.52;8.18;;;11.70;99.60;;;;;;5036190;28;20160;-82
2023/10/17 08:58:10;;;;;;;13.52;8.85;;;11.90;99.50;;;;;;5035552;28;20485;-82
2023/10/17 09:03:20;;;;;;;10.57;7.07;;;12.20;98.80;;;;;;5035789;28;20029;-82
2023/10/17 09:08:55;;;;;;;11.45;7.38;;;12.50;98.50;;;;;;5035743;28;20040;-81
2023/10/17 09:11:33;;;;;;;11.32;8.45;;;12.60;98.50;;;;;;5018034;28;20034;-81
2023/10/17 09:14:24;;;;;;;15.93;7.10;;;12.70;98.30;;;;;;5035526;28;20033;-82
2023/10/17 09:17:49;;;;;;;10.95;6.97;;;12.80;98.00;;;;;;5035857;28;20056;-82
2023/10/17 09:19:52;;;;;;;16.45;8.60;;;13.00;98.00;;;;;;5021581;28;20045;-81
2023/10/17 09:22:40;;;;;;;11.68;7.40;;;13.00;97.30;;;;;;5035196;28;20029;-81
2023/10/17 09:25:19;;;;;;;11.10;7.97;;;13.00;97.50;;;;;;5036351;28;20049;-81
2023/10/17 09:27:52;;;;;;;12.55;7.95;;;13.10;97.60;;;;;;5035682;28;20128;-81
2023/10/17 09:30:18;;;;;;;10.13;6.88;;;13.00;97.70;;;;;;5035699;28;20033;-82
2023/10/17 09:32:44;;;;;;;9.98;6.93;;;13.10;97.60;;;;;;5035849;28;20026;-82
2023/10/17 09:35:15;;;;;;;9.50;5.63;;;13.20;97.30;;;;;;5035151;28;20100;-82
2023/10/17 09:37:52;;;;;;;15.15;8.45;;;13.30;97.60;;;;;;5017735;28;20112;-76
2023/10/17 09:40:29;;;;;;;12.82;7.18;;;13.30;96.70;;;;;;5035291;28;20033;-83
2023/10/17 09:42:56;;;;;;;10.48;7.13;;;13.40;97.10;;;;;;5034648;28;20108;-82
2023/10/17 09:45:22;;;;;;;9.60;6.32;;;13.70;97.20;;;;;;5036953;28;20023;-81
2023/10/17 09:48:01;;;;;;;10.65;6.72;;;13.80;96.60;;;;;;5035904;28;20025;-81
2023/10/17 09:50:29;;;;;;;8.82;6.78;;;13.80;95.70;;;;;;5035012;28;20482;-82
2023/10/17 09:52:58;;;;;;;15.70;7.32;;;13.80;95.70;;;;;;5034895;28;20037;-82
2023/10/17 09:55:24;;;;;;;9.13;6.20;;;13.70;95.90;;;;;;5017407;28;20370;-83
2023/10/17 09:58:02;;;;;;;8.85;6.20;;;13.70;95.50;;;;;;5034906;28;20029;-83
2023/10/17 10:00:41;;;;;;;10.18;5.90;;;13.80;95.70;;;;;;5017068;28;20037;-82
2023/10/17 10:03:08;;;;;;;10.75;5.60;;;14.00;95.40;;;;;;5035087;28;20113;-82
2023/10/17 10:05:34;;;;;;;11.15;6.30;;;14.00;95.00;;;;;;5017294;28;20048;-82
2023/10/17 10:08:21;;;;;;;9.98;6.15;;;14.10;95.10;;;;;;5034710;28;20447;-83
2023/10/17 10:10:52;;;;;;;10.95;6.53;;;14.00;95.00;;;;;;5033691;28;20474;-81
2023/10/17 10:13:19;;;;;;;10.80;6.00;;;14.00;95.10;;;;;;5016924;28;20025;-81
2023/10/17 10:15:51;;;;;;;8.30;5.50;;;14.00;95.20;;;;;;5034371;28;20105;-83
2023/10/17 10:18:18;;;;;;;5.90;3.57;;;13.90;95.40;;;;;;5016799;28;20375;-83
2023/10/17 10:20:57;;;;;;;8.25;5.20;;;14.10;95.80;;;;;;5034278;28;20426;-82
2023/10/17 10:23:36;;;;;;;11.07;5.38;;;14.20;95.40;;;;;;5035097;28;20482;-82
2023/10/17 10:26:11;;;;;;;6.38;4.10;;;14.20;95.10;;;;;;5034148;28;20029;-82
2023/10/17 10:28:41;;;;;;;7.85;4.22;;;14.30;94.80;;;;;;5034969;28;20049;-83
2023/10/17 10:31:33;;;;;;;7.95;4.05;;;14.20;94.70;;;;;;5017600;28;20025;-83
2023/10/17 10:33:58;;;;;;;8.65;5.10;;;14.20;94.70;;;;;;5004355;28;20394;-83
2023/10/17 10:36:25;;;;;;;10.75;5.53;;;14.20;94.40;;;;;;5034670;28;20034;-82
2023/10/17 10:38:55;;;;;;;10.80;4.85;;;14.10;94.30;;;;;;5034258;28;20037;-82
2023/10/17 10:41:25;;;;;;;5.90;3.72;;;14.20;95.10;;;;;;5034566;28;20553;-82
2023/10/17 10:43:58;;;;;;;5.53;3.58;;;14.30;94.90;;;;;;5034444;28;20087;-83
2023/10/17 10:46:24;;;;;;;5.80;4.03;;;14.40;94.50;;;;;;5034017;28;20025;-82
2023/10/17 10:48:53;;;;;;;8.20;4.03;;;14.50;93.90;;;;;;5034243;28;20040;-83
2023/10/17 10:51:19;;;;;;;6.53;3.58;;;14.70;94.70;;;;;;5034281;28;20030;-80
2023/10/17 10:53:54;;;;;;;8.48;3.92;;;14.70;94.30;;;;;;5034642;28;20492;-77
2023/10/17 10:56:22;;;;;;;6.45;3.42;;;14.90;94.50;;;;;;5034130;28;20044;-82
2023/10/17 10:58:53;;;;;;;5.40;3.45;;;14.90;94.10;;;;;;5016082;28;20057;-83
2023/10/17 11:01:20;;;;;;;9.45;4.20;;;15.10;93.80;;;;;;5034392;28;20363;-82
2023/10/17 11:03:47;;;;;;;5.60;3.10;;;15.10;93.40;;;;;;5033513;28;20419;-82
2023/10/17 11:06:14;;;;;;;13.52;3.60;;;15.10;93.60;;;;;;5034163;28;20104;-79
2023/10/17 11:08:46;;;;;;;7.25;3.55;;;15.20;93.50;;;;;;5033450;28;20032;-82
2023/10/17 11:11:16;;;;;;;7.97;3.88;;;15.30;92.80;;;;;;5033486;28;20096;-83
2023/10/17 11:13:50;;;;;;;5.68;3.70;;;15.40;92.40;;;;;;5033581;28;20036;-83
2023/10/17 11:16:21;;;;;;;6.15;3.60;;;15.40;92.90;;;;;;5034814;28;20028;-83
2023/10/17 11:18:47;;;;;;;5.90;2.85;;;15.30;92.40;;;;;;5033774;28;20038;-82
2023/10/17 11:21:16;;;;;;;5.80;3.60;;;15.20;92.70;;;;;;5033630;28;20033;-82
2023/10/17 11:23:50;;;;;;;7.05;3.72;;;15.10;92.70;;;;;;5034255;28;20120;-83
2023/10/17 11:26:19;;;;;;;10.45;4.07;;;15.10;92.80;;;;;;5033684;28;20470;-82
2023/10/17 11:28:51;;;;;;;8.18;3.45;;;15.00;92.90;;;;;;5033467;28;20050;-82
2023/10/17 11:31:27;;;;;;;5.25;3.33;;;15.00;92.80;;;;;;5033855;28;20378;-82
2023/10/17 11:34:03;;;;;;;7.55;3.30;;;15.00;92.80;;;;;;5033851;28;20030;-81
2023/10/17 11:36:45;;;;;;;5.22;3.45;;;14.90;92.70;;;;;;5034113;28;20401;-82
2023/10/17 11:39:10;;;;;;;6.00;3.70;;;14.90;92.50;;;;;;5033070;28;20049;-82
2023/10/17 11:41:55;;;;;;;6.82;2.95;;;15.00;92.70;;;;;;5015748;28;20052;-82
2023/10/17 11:44:25;;;;;;;7.63;2.60;;;15.20;92.60;;;;;;5033811;28;20037;-83
2023/10/17 11:47:02;;;;;;;6.25;2.92;;;15.30;92.20;;;;;;5015994;28;20084;-82
2023/10/17 11:49:33;;;;;;;6.20;3.00;;;15.50;91.80;;;;;;5033650;28;20045;-82
2023/10/17 11:52:09;;;;;;;5.88;2.55;;;15.50;91.40;;;;;;5032588;28;20038;-82
2023/10/17 11:55:23;;;;;;;3.92;2.33;;;15.60;91.30;;;;;;5033654;28;20112;-81
2023/10/17 11:57:50;;;;;;;5.47;2.70;;;15.70;90.90;;;;;;5019332;28;20088;-82
2023/10/17 12:02:47;;;;;;;4.55;2.35;;;15.60;91.60;;;;;;5016140;28;20378;-82
2023/10/17 12:05:19;;;;;;;4.22;2.30;;;15.70;91.00;;;;;;5033934;28;20045;-82
2023/10/17 12:07:49;;;;;;;6.70;1.83;;;15.70;91.10;;;;;;5033581;28;20053;-82
2023/10/17 12:10:16;;;;;;;9.10;2.47;;;15.80;91.30;;;;;;5033629;28;20069;-82
2023/10/17 12:12:41;;;;;;;5.13;1.85;;;15.90;91.10;;;;;;5034108;28;20029;-81
2023/10/17 12:15:13;;;;;;;6.20;1.70;;;15.90;90.80;;;;;;5016446;28;20029;-83
2023/10/17 12:17:39;;;;;;;5.63;1.73;;;15.90;90.50;;;;;;5033137;28;20138;-80
2023/10/17 12:20:11;;;;;;;2.95;1.58;;;16.00;90.60;;;;;;5033183;28;20061;-82
2023/10/17 12:22:37;;;;;;;3.55;1.88;;;15.90;90.10;;;;;;5036018;28;20175;-81
2023/10/17 12:25:04;;;;;;;3.85;1.35;;;15.80;90.30;;;;;;5037546;28;20025;-82
2023/10/17 12:27:30;;;;;;;3.63;1.40;;;15.80;90.20;;;;;;5019884;28;20107;-82
2023/10/17 12:29:56;;;;;;;4.05;1.38;;;15.90;90.00;;;;;;5037776;28;20033;-81
2023/10/17 12:32:22;;;;;;;3.28;1.77;;;16.00;90.00;;;;;;5036719;28;20179;-82
2023/10/17 12:34:49;;;;;;;2.95;1.48;;;16.20;90.00;;;;;;5037136;28;20057;-83
2023/10/17 12:37:17;;;;;;;5.85;1.42;;;16.30;90.00;;;;;;5036623;28;20092;-81
2023/10/17 12:39:43;;;;;;;5.22;1.60;;;16.30;90.20;;;;;;5036289;28;20041;-81
2023/10/17 12:42:10;;;;;;;3.92;1.95;;;16.40;89.70;;;;;;5036624;28;20032;-81
2023/10/17 12:44:36;;;;;;;6.20;1.45;;;16.50;89.10;;;;;;5036345;28;20103;-80
2023/10/17 12:47:02;;;;;;;2.50;1.00;;;16.60;88.50;;;;;;5036162;28;20061;-81
2023/10/17 12:49:28;;;;;;;4.88;1.27;;;16.80;87.70;;;;;;5036404;28;20437;-82
2023/10/17 12:51:54;;;;;;;5.00;1.33;;;16.80;86.20;;;;;;5035655;28;20024;-81
2023/10/17 12:54:19;;;;;;;4.85;1.30;;;16.50;87.60;;;;;;5018449;28;20120;-81
2023/10/17 12:56:45;;;;;;;2.90;0.98;;;16.60;87.70;;;;;;5018557;28;20128;-81
2023/10/17 12:59:13;;;;;;;2.85;1.42;;;16.70;87.60;;;;;;5036386;28;20073;-80
2023/10/17 13:01:40;;;;;;;3.17;1.30;;;16.90;86.80;;;;;;5036050;28;20060;-80
2023/10/17 13:04:07;;;;;;;3.30;1.05;;;16.80;84.20;;;;;;5035615;28;20550;-81
2023/10/17 13:06:34;;;;;;;3.10;1.17;;;16.80;83.90;;;;;;5036064;28;20053;-82
2023/10/17 13:09:00;;;;;;;6.15;1.17;;;16.80;83.70;;;;;;5035258;28;20044;-81
2023/10/17 13:11:27;;;;;;;3.30;0.90;;;16.80;85.20;;;;;;5018212;28;20029;-81
2023/10/17 13:13:54;;;;;;;2.30;0.80;;;16.70;83.90;;;;;;5018077;28;20379;-80
2023/10/17 13:16:21;;;;;;;3.53;1.05;;;16.80;83.80;;;;;;5017868;28;20026;-80
2023/10/17 13:18:53;;;;;;;2.47;0.68;;;16.90;83.40;;;;;;5035493;28;20037;-81
2023/10/17 13:21:18;;;;;;;5.18;1.10;;;17.10;84.20;;;;;;5034767;28;20478;-81
2023/10/17 13:23:44;;;;;;;4.85;0.80;;;17.10;83.50;;;;;;5035524;28;20029;-82
2023/10/17 13:26:13;;;;;;;4.43;0.90;;;17.00;84.70;;;;;;5035299;28;20072;-79
2023/10/17 13:28:40;;;;;;;1.65;1.20;;;17.00;85.00;;;;;;5017969;28;20409;-79
2023/10/17 13:31:10;;;;;;;2.53;0.95;;;16.90;84.10;;;;;;5035555;28;20034;-81
2023/10/17 13:33:36;;;;;;;4.63;1.10;;;16.90;84.90;;;;;;5035186;28;20373;-80
2023/10/17 13:36:01;;;;;;;2.90;1.00;;;16.80;84.10;;;;;;5035486;28;20030;-81
2023/10/17 13:38:27;;;;;;;2.72;1.00;;;16.80;84.60;;;;;;5017960;28;20033;-82
2023/10/17 13:41:05;;;;;;;2.88;0.93;;;16.80;85.10;;;;;;5035746;28;20037;-80
2023/10/17 13:43:32;;;;;;;3.58;0.80;;;16.70;84.50;;;;;;5035311;28;20082;-81
2023/10/17 13:45:57;;;;;;;2.25;0.90;;;16.70;84.80;;;;;;5035601;28;20053;-82
2023/10/17 13:48:23;;;;;;;2.03;1.00;;;16.60;85.10;;;;;;5017788;28;20453;-82
2023/10/17 13:50:49;;;;;;;3.35;1.05;;;16.70;84.20;;;;;;5017129;28;20109;-82
2023/10/17 13:53:16;;;;;;;3.30;1.20;;;16.80;84.40;;;;;;5035579;28;20056;-81
2023/10/17 13:55:43;;;;;;;2.63;1.02;;;16.70;82.50;;;;;;5035338;28;20099;-82
2023/10/17 13:58:09;;;;;;;2.97;1.45;;;16.60;82.80;;;;;;5035276;28;20025;-81
2023/10/17 14:00:43;;;;;;;3.88;1.48;;;16.50;82.30;;;;;;5017672;28;20092;-82
2023/10/17 14:03:13;;;;;;;2.80;1.00;;;16.40;82.50;;;;;;5035411;28;20030;-81
2023/10/17 14:05:47;;;;;;;3.50;0.85;;;16.50;83.00;;;;;;5035336;28;20030;-81
2023/10/17 14:08:22;;;;;;;2.35;1.23;;;16.50;82.40;;;;;;5036437;28;20413;-81
2023/10/17 14:10:48;;;;;;;3.33;1.40;;;16.60;82.50;;;;;;5035430;28;20120;-82
2023/10/17 14:13:16;;;;;;;2.10;0.98;;;16.60;82.30;;;;;;5034804;28;20022;-81
2023/10/17 14:15:42;;;;;;;4.13;1.15;;;16.50;82.50;;;;;;5016773;28;20375;-82
2023/10/17 14:18:14;;;;;;;3.63;1.52;;;16.50;82.00;;;;;;5034310;28;20143;-81
2023/10/17 14:23:45;;;;;;;4.63;1.15;;;16.50;82.90;;;;;;5034803;28;20417;-80
2023/10/17 14:26:11;;;;;;;3.88;1.20;;;16.40;82.80;;;;;;5016963;28;20048;-81
2023/10/17 14:28:37;;;;;;;4.28;1.52;;;16.40;82.40;;;;;;5033873;28;20494;-82
2023/10/17 14:31:05;;;;;;;5.10;1.55;;;16.30;82.60;;;;;;5033861;28;20068;-82
2023/10/17 14:33:34;;;;;;;2.65;1.00;;;16.30;82.60;;;;;;5034359;28;20432;-81
2023/10/17 14:36:11;;;;;;;2.08;0.95;;;16.30;82.30;;;;;;5034259;28;20057;-81
2023/10/17 14:38:37;;;;;;;2.72;1.50;;;16.40;82.90;;;;;;5034154;28;20099;-81
2023/10/17 14:41:13;;;;;;;5.32;1.20;;;16.40;82.50;;;;;;5016363;28;20037;-82
2023/10/17 14:43:43;;;;;;;5.55;1.17;;;16.20;83.30;;;;;;5016466;28;20485;-81
2023/10/17 14:46:09;;;;;;;3.60;1.13;;;16.20;83.40;;;;;;5033469;28;20036;-82
2023/10/17 14:48:36;;;;;;;4.03;1.20;;;16.20;84.30;;;;;;5034261;28;20577;-81
2023/10/17 14:51:03;;;;;;;3.20;1.05;;;16.30;83.70;;;;;;5033395;28;20034;-82
2023/10/17 14:53:28;;;;;;;2.08;1.20;;;16.20;83.50;;;;;;5033143;28;20040;-82
2023/10/17 14:55:58;;;;;;;5.57;1.60;;;16.20;84.40;;;;;;5016123;28;20034;-82
2023/10/17 14:58:24;;;;;;;2.92;1.40;;;16.10;82.50;;;;;;5033639;28;20065;-82
2023/10/17 15:00:52;;;;;;;3.95;1.42;;;15.80;82.80;;;;;;5033675;28;20099;-82
2023/10/17 15:03:19;;;;;;;3.10;1.13;;;15.70;83.50;;;;;;5016168;28;20029;-82
2023/10/17 15:05:44;;;;;;;2.55;0.90;;;15.80;84.10;;;;;;5033358;28;20516;-83
2023/10/17 15:08:11;;;;;;;2.05;1.02;;;15.80;84.50;;;;;;5033410;28;20021;-80
2023/10/17 15:10:39;;;;;;;3.53;1.08;;;15.90;85.10;;;;;;5033515;28;20041;-82
2023/10/17 15:13:04;;;;;;;3.63;1.02;;;15.80;85.10;;;;;;5033571;28;20108;-82
2023/10/17 15:15:34;;;;;;;3.13;1.50;;;15.70;85.90;;;;;;5033475;28;20072;-82
2023/10/17 15:17:59;;;;;;;5.82;1.50;;;15.70;85.60;;;;;;5033342;28;20061;-82
2023/10/17 15:20:25;;;;;;;4.45;1.48;;;15.70;84.70;;;;;;4999217;28;20129;-80
2023/10/17 15:22:51;;;;;;;2.67;1.20;;;15.40;84.90;;;;;;5032960;28;20030;-81
2023/10/17 15:25:19;;;;;;;5.75;1.33;;;15.40;85.10;;;;;;5033211;28;20474;-81
2023/10/17 15:27:48;;;;;;;3.75;1.45;;;15.30;85.10;;;;;;5033201;28;20042;-81
2023/10/17 15:30:14;;;;;;;2.78;1.05;;;15.30;84.80;;;;;;5033253;28;20101;-82
2023/10/17 15:32:43;;;;;;;5.10;1.52;;;15.20;85.40;;;;;;5033080;28;20502;-82